Sao Miguel das Matas, Brazil
Current Conditions -  °F | °C
As of 6:00 PM on Thursday 20 Nov 2014 (Local Time) from SBSV Reporting Station
Broken Clouds Broken Clouds  
Wind Chill: 75°   Ceiling: 1500
Heat Index: 75°   Visibility: 4mi
Dew Point: 70°   Wind: 10mph
Humidity: 83%   Direction: 160°SSE
Pressure: 29.94"   Gusts: NA
Location:  13.02°S, 39.45°W
Report Text: SBSV 202100Z 16009KT 6000 SCT010 BKN015 FEW020TCU BKN070 24/21 Q1014
Loading
Personal Weather Stations






























Interactive Weather Map New forecast layout! Learn more

10-Day Weather Forecast

Advertisements
Track Severe Weather on mobile